logo dgac
Martes 12 de Diciembre del 2017
Buscar por aerodromo o helipuerto
Ingrese nombre de aeródromo, localidad o designador OACI:

Aeródromo: Rodelillo (PUB) (SCRD)

Ubicación: Viña del Mar, V Región, Chile (33º 04' 06'' S, 71º 33' 27'' W) Ver ubicación en el mapa

Pistas

Orientación Dimensión Pendiente Superficie Resistencia APCH THR RWY PAPI
01/19 850 x 20 1,00 ASPH 6.000 Kg No No No No
Horas de operación HJ
Elevación 335 m / 1100 ft
Otra Información Adm : Mauricio Zulueta
Uso : PUB
TEL Club Aereo Valparaiso-Viña del Mar (32) 22611677
TEL DGAC ARO (32) 22613719
Ubicado a 6 km SE de Viña del Mar

Otra información ver AIP-Chile Volumen I AD 3.9-20.6-V
andera de Chile
Mapa de Rodelillo (PUB) (SCRD)

Último METAR

METAR SCRD 121200Z 03005KT 0300 FG DZ VV000 13/13 Q1018

Último TAF

TAF SCRD 121030Z 1212/1224 36006KT 9999 OVC020 TX16/1218Z TN13/1212Z TEMPO 1212/1215 4000 -DZ BR OVC010 BECMG 1217/1218 33010KT BKN035

Últimas fotos cámaras

Imagen aerodromo Rodelillo (PUB) (SCRD) Norte tomada el 12-12-2017 09:11:48 Imagen aerodromo Rodelillo (PUB) (SCRD) Sur tomada el 12-12-2017 09:18:01

Último NOTAM

C3727/17 NOTAMN Q)SCEZ/QFALT/IV/NBO/A/000/999/3304S07133W005 A)SCRD B)1712011439 C)1712312359 E)AD TEL 32-2613719 U/S ALTN CEL 982991600

LLegadas a Rodelillo (PUB) (SCRD)

En vuelo

Vuelo Procedencia Hora Despegue Local Hora Arribo Local

Salidas de Rodelillo (PUB) (SCRD)

En vuelo

Vuelo Hacia Hora Despegue Local Hora Arribo Local